Time;durP1;ratioP1;P1;durP2;ratioP2;P2;SDS_P1;SDS_P2;PMS_P1;PMS_P2;Temp;Humidity;BMP_temperature;BMP_pressure;BME280_temperature;BME280_humidity;BME280_pressure;Samples;Min_cycle;Max_cycle;Signal;HPM_P1;HPM_P2
2023/03/17 00:01:54;;;;;;;13.05;9.77;;;21.50;29.80;;;;;;5076210;28;20051;-62
2023/03/17 00:04:23;;;;;;;12.93;8.52;;;21.40;29.80;;;;;;5075606;28;20382;-61
2023/03/17 00:06:51;;;;;;;13.30;8.95;;;21.40;29.80;;;;;;5075562;28;20489;-61
2023/03/17 00:09:20;;;;;;;14.82;9.77;;;21.40;29.80;;;;;;5075925;28;20396;-61
2023/03/17 00:11:47;;;;;;;14.23;9.35;;;21.40;29.80;;;;;;5074451;28;20099;-61
2023/03/17 00:14:15;;;;;;;13.82;8.63;;;21.40;29.80;;;;;;5076040;28;20084;-61
2023/03/17 00:16:50;;;;;;;12.93;8.88;;;21.40;29.80;;;;;;5075109;28;20049;-62
2023/03/17 00:19:25;;;;;;;13.65;9.07;;;21.40;29.90;;;;;;5076084;28;20135;-62
2023/03/17 00:21:53;;;;;;;16.33;8.77;;;21.40;29.80;;;;;;5073692;28;20540;-62
2023/03/17 00:24:21;;;;;;;13.52;9.13;;;21.40;29.90;;;;;;5075368;28;20090;-62
2023/03/17 00:26:48;;;;;;;12.60;8.52;;;21.40;29.90;;;;;;5074784;28;20481;-62
2023/03/17 00:29:15;;;;;;;13.90;8.70;;;21.40;29.90;;;;;;5074457;28;20063;-61
2023/03/17 00:31:44;;;;;;;13.27;8.85;;;21.40;29.90;;;;;;5075220;28;20481;-62
2023/03/17 00:34:17;;;;;;;12.60;8.40;;;21.40;29.90;;;;;;5075229;28;20048;-61
2023/03/17 00:36:49;;;;;;;12.82;9.45;;;21.40;29.90;;;;;;5073210;28;20055;-62
2023/03/17 00:39:17;;;;;;;13.18;9.45;;;21.40;29.90;;;;;;5075692;28;20393;-61
2023/03/17 00:41:44;;;;;;;13.18;8.20;;;21.40;29.90;;;;;;5075649;28;20098;-62
2023/03/17 00:44:12;;;;;;;11.48;8.38;;;21.40;29.90;;;;;;5075556;28;20055;-61
2023/03/17 00:46:40;;;;;;;10.55;7.63;;;21.40;29.90;;;;;;5074220;28;20128;-62
2023/03/17 00:49:16;;;;;;;13.55;8.60;;;21.40;29.90;;;;;;5075500;28;20489;-62
2023/03/17 00:51:46;;;;;;;11.63;8.20;;;21.40;29.90;;;;;;5075386;28;20080;-61
2023/03/17 00:54:14;;;;;;;11.63;7.43;;;21.40;29.90;;;;;;5057850;28;20135;-62
2023/03/17 00:56:43;;;;;;;11.60;7.32;;;21.40;29.90;;;;;;5075628;28;20102;-62
2023/03/17 00:59:28;;;;;;;10.65;7.80;;;21.40;29.90;;;;;;5075343;28;20056;-61
2023/03/17 01:01:56;;;;;;;11.02;7.45;;;21.40;29.90;;;;;;5075252;28;20048;-61
2023/03/17 01:04:23;;;;;;;13.32;8.13;;;21.30;29.80;;;;;;5075649;28;20052;-62
2023/03/17 01:06:51;;;;;;;10.82;7.50;;;21.40;29.90;;;;;;5073903;28;20045;-62
2023/03/17 01:09:22;;;;;;;11.43;7.85;;;21.30;29.80;;;;;;5075065;28;20048;-61
2023/03/17 01:11:50;;;;;;;10.70;7.32;;;21.40;29.90;;;;;;5073879;28;20484;-62
2023/03/17 01:14:17;;;;;;;12.00;7.93;;;21.30;29.80;;;;;;5075227;28;20048;-61
2023/03/17 01:16:44;;;;;;;13.43;8.68;;;21.30;29.80;;;;;;5074948;28;20059;-62
2023/03/17 01:19:12;;;;;;;10.32;7.40;;;21.30;29.80;;;;;;5074977;28;20520;-62
2023/03/17 01:21:40;;;;;;;10.68;6.80;;;21.30;29.80;;;;;;5074826;28;20055;-63
2023/03/17 01:24:08;;;;;;;9.40;6.47;;;21.30;29.80;;;;;;5075149;28;20095;-62
2023/03/17 01:26:36;;;;;;;12.13;7.40;;;21.30;29.80;;;;;;5075003;28;20110;-61
2023/03/17 01:29:05;;;;;;;13.20;6.90;;;21.30;29.80;;;;;;5074675;28;20102;-62
2023/03/17 01:31:32;;;;;;;11.88;7.47;;;21.30;29.80;;;;;;5074633;28;20048;-61
2023/03/17 01:33:59;;;;;;;11.48;7.40;;;21.30;29.80;;;;;;5074906;28;20057;-62
2023/03/17 01:36:27;;;;;;;11.63;7.25;;;21.30;29.80;;;;;;5074267;28;20053;-62
2023/03/17 01:38:54;;;;;;;12.68;7.60;;;21.30;29.80;;;;;;5074623;28;20055;-62
2023/03/17 01:41:21;;;;;;;10.60;7.28;;;21.30;29.80;;;;;;5074352;28;20489;-62
2023/03/17 01:43:48;;;;;;;9.25;6.85;;;21.30;29.80;;;;;;5074786;28;20044;-61
2023/03/17 01:46:29;;;;;;;11.13;6.97;;;21.30;29.80;;;;;;5073107;28;20134;-62
2023/03/17 01:49:11;;;;;;;11.40;7.20;;;21.30;29.80;;;;;;5074474;28;20207;-62
2023/03/17 01:52:05;;;;;;;11.07;7.15;;;21.30;29.80;;;;;;5073319;28;20048;-61
2023/03/17 01:54:55;;;;;;;11.40;7.28;;;21.20;29.80;;;;;;5074252;28;20094;-61
2023/03/17 01:57:27;;;;;;;10.82;7.05;;;21.20;29.80;;;;;;5074239;28;20378;-62
2023/03/17 02:00:04;;;;;;;9.73;6.57;;;21.30;29.80;;;;;;5072932;28;20485;-62
2023/03/17 02:02:35;;;;;;;9.82;6.30;;;21.20;29.80;;;;;;5074060;28;20052;-61
2023/03/17 02:05:05;;;;;;;9.95;6.50;;;21.30;29.90;;;;;;5074035;28;20131;-61
2023/03/17 02:07:32;;;;;;;11.45;6.43;;;21.20;29.80;;;;;;5073920;28;20135;-61
2023/03/17 02:10:01;;;;;;;8.95;6.40;;;21.20;29.80;;;;;;5073854;28;20409;-61
2023/03/17 02:12:29;;;;;;;8.73;6.28;;;21.20;29.80;;;;;;5073826;28;20576;-61
2023/03/17 02:14:58;;;;;;;10.27;6.32;;;21.20;29.80;;;;;;5074180;28;20048;-62
2023/03/17 02:17:26;;;;;;;9.68;6.40;;;21.20;29.80;;;;;;5073606;28;20128;-61
2023/03/17 02:19:55;;;;;;;8.32;5.35;;;21.20;29.80;;;;;;5073667;28;20076;-62
2023/03/17 02:22:22;;;;;;;9.05;6.15;;;21.20;29.80;;;;;;5073285;28;20139;-62
2023/03/17 02:24:57;;;;;;;8.45;6.20;;;21.20;29.80;;;;;;5073639;28;20053;-63
2023/03/17 02:27:34;;;;;;;8.75;6.47;;;21.20;29.80;;;;;;5073819;28;20122;-61
2023/03/17 02:30:03;;;;;;;9.43;6.60;;;21.20;29.90;;;;;;5072770;28;20496;-62
2023/03/17 02:32:34;;;;;;;8.73;5.72;;;21.20;29.80;;;;;;5073390;28;20041;-61
2023/03/17 02:35:02;;;;;;;8.98;5.90;;;21.20;29.80;;;;;;5073503;28;20048;-62
2023/03/17 02:37:30;;;;;;;7.20;5.72;;;21.20;29.80;;;;;;5073300;28;20135;-61
2023/03/17 02:39:57;;;;;;;7.93;5.35;;;21.20;29.80;;;;;;5073376;28;20554;-62
2023/03/17 02:42:24;;;;;;;6.88;5.15;;;21.20;29.80;;;;;;5073385;28;20083;-61
2023/03/17 02:44:51;;;;;;;8.30;5.15;;;21.20;29.80;;;;;;5073640;28;20072;-62
2023/03/17 02:47:18;;;;;;;6.95;5.30;;;21.20;29.80;;;;;;5073116;28;20052;-62
2023/03/17 02:49:46;;;;;;;8.65;5.78;;;21.20;29.90;;;;;;5073699;28;20053;-62
2023/03/17 02:52:13;;;;;;;7.28;5.25;;;21.20;29.90;;;;;;5073298;28;20130;-61
2023/03/17 02:54:40;;;;;;;7.07;5.35;;;21.10;29.80;;;;;;5073204;28;20492;-61
2023/03/17 02:57:08;;;;;;;7.70;5.53;;;21.20;29.90;;;;;;5073502;28;20052;-61
2023/03/17 02:59:35;;;;;;;7.78;5.13;;;21.20;29.90;;;;;;5073208;28;20416;-61
2023/03/17 03:02:02;;;;;;;6.93;4.88;;;21.20;29.90;;;;;;5073386;28;20109;-62
2023/03/17 03:04:30;;;;;;;6.88;5.07;;;21.20;29.80;;;;;;5073177;28;20083;-61
2023/03/17 03:06:57;;;;;;;6.43;4.60;;;21.20;29.90;;;;;;5073374;28;20131;-63
2023/03/17 03:09:24;;;;;;;7.60;4.95;;;21.20;29.80;;;;;;5073050;28;20409;-62
2023/03/17 03:11:51;;;;;;;5.72;4.70;;;21.20;29.80;;;;;;5073079;28;20135;-61
2023/03/17 03:14:18;;;;;;;7.68;4.85;;;21.20;29.80;;;;;;5073230;28;20403;-61
2023/03/17 03:16:46;;;;;;;5.88;4.60;;;21.20;29.80;;;;;;5073015;28;20476;-62
2023/03/17 03:19:13;;;;;;;7.50;5.50;;;21.10;29.80;;;;;;5073019;28;20102;-62
2023/03/17 03:21:40;;;;;;;6.07;4.95;;;21.10;29.80;;;;;;5072817;28;20049;-61
2023/03/17 03:24:08;;;;;;;7.28;5.03;;;21.20;29.80;;;;;;5073008;28;20054;-62
2023/03/17 03:26:35;;;;;;;4.97;4.00;;;21.10;29.80;;;;;;5073291;28;20127;-62
2023/03/17 03:29:04;;;;;;;8.85;4.80;;;21.10;29.80;;;;;;5073191;28;20052;-62
2023/03/17 03:31:31;;;;;;;6.80;4.80;;;21.10;29.80;;;;;;5073315;28;20408;-62
2023/03/17 03:33:58;;;;;;;6.32;4.20;;;21.10;29.80;;;;;;5077272;28;20401;-61
2023/03/17 03:36:26;;;;;;;5.13;4.30;;;21.10;29.80;;;;;;5077041;28;20044;-62
2023/03/17 03:38:53;;;;;;;6.22;4.13;;;21.10;29.80;;;;;;5081002;28;20471;-62
2023/03/17 03:41:21;;;;;;;5.68;3.90;;;21.10;29.80;;;;;;5084777;28;20127;-62
2023/03/17 03:43:48;;;;;;;5.55;4.05;;;21.10;29.80;;;;;;5076646;28;20052;-62
2023/03/17 03:46:15;;;;;;;6.05;4.20;;;21.10;29.80;;;;;;5076988;28;20057;-62
2023/03/17 03:48:42;;;;;;;5.05;3.75;;;21.10;29.80;;;;;;5076556;28;20044;-62
2023/03/17 03:51:10;;;;;;;5.25;4.15;;;21.10;29.80;;;;;;5076896;28;20075;-62
2023/03/17 03:53:37;;;;;;;5.53;3.88;;;21.10;29.80;;;;;;5076694;28;20048;-62
2023/03/17 03:56:04;;;;;;;7.53;4.60;;;21.10;29.80;;;;;;5076423;28;20048;-64
2023/03/17 03:58:31;;;;;;;6.10;4.20;;;21.10;29.80;;;;;;5075239;28;20058;-61
2023/03/17 04:01:02;;;;;;;6.35;3.92;;;21.10;29.80;;;;;;5076631;28;20127;-62
2023/03/17 04:03:29;;;;;;;4.35;3.65;;;21.10;29.80;;;;;;5076730;28;20132;-61
2023/03/17 04:05:57;;;;;;;5.90;4.15;;;21.10;29.80;;;;;;5076552;28;20106;-61
2023/03/17 04:08:24;;;;;;;5.90;4.05;;;21.00;29.70;;;;;;5076219;28;20059;-62
2023/03/17 04:10:51;;;;;;;6.93;4.53;;;21.10;29.80;;;;;;5076209;28;20473;-62
2023/03/17 04:13:18;;;;;;;5.60;4.20;;;21.10;29.80;;;;;;5094628;28;20079;-62
2023/03/17 04:15:45;;;;;;;6.20;4.00;;;21.10;29.80;;;;;;5096512;28;20044;-62
2023/03/17 04:18:13;;;;;;;4.50;3.63;;;21.00;29.70;;;;;;5096389;28;20071;-62
2023/03/17 04:20:40;;;;;;;4.55;3.78;;;21.00;29.80;;;;;;5096284;28;20139;-62
2023/03/17 04:23:07;;;;;;;6.57;4.25;;;21.00;29.80;;;;;;5096199;28;20535;-62
2023/03/17 04:25:35;;;;;;;4.40;3.42;;;21.00;29.70;;;;;;5096568;28;20044;-61
2023/03/17 04:28:02;;;;;;;5.93;3.50;;;21.00;29.80;;;;;;5096392;28;20131;-61
2023/03/17 04:30:30;;;;;;;6.47;3.80;;;21.00;29.80;;;;;;5096509;28;20413;-62
2023/03/17 04:32:57;;;;;;;4.40;3.35;;;21.00;29.80;;;;;;5095971;28;20083;-61
2023/03/17 04:35:25;;;;;;;5.30;3.90;;;21.00;30.10;;;;;;5096278;28;20425;-62
2023/03/17 04:37:53;;;;;;;5.43;3.55;;;21.00;29.80;;;;;;5096128;28;20127;-61
2023/03/17 04:40:20;;;;;;;4.88;4.22;;;21.00;29.80;;;;;;5082180;28;20127;-61
2023/03/17 04:42:47;;;;;;;4.15;3.25;;;21.00;29.70;;;;;;5075781;28;20124;-61
2023/03/17 04:45:15;;;;;;;4.57;3.30;;;21.00;29.80;;;;;;5085766;28;20056;-62
2023/03/17 04:47:45;;;;;;;5.53;4.30;;;21.00;29.80;;;;;;5093772;28;20127;-62
2023/03/17 04:50:13;;;;;;;4.25;3.35;;;21.00;29.80;;;;;;5086870;28;20044;-62
2023/03/17 04:52:40;;;;;;;4.05;3.20;;;21.00;30.00;;;;;;5075415;28;20055;-62
2023/03/17 04:55:08;;;;;;;5.00;3.55;;;21.00;29.80;;;;;;5075605;28;20059;-61
2023/03/17 04:57:35;;;;;;;5.78;3.88;;;21.00;29.80;;;;;;5075522;28;20127;-62
2023/03/17 05:00:05;;;;;;;5.88;3.80;;;21.00;29.80;;;;;;5075581;28;20381;-61
2023/03/17 05:02:32;;;;;;;6.00;3.70;;;21.00;29.80;;;;;;5073894;28;20086;-62
2023/03/17 05:04:59;;;;;;;4.85;3.22;;;21.00;29.80;;;;;;5075710;28;20048;-61
2023/03/17 05:07:27;;;;;;;4.03;3.03;;;21.00;29.80;;;;;;5078929;28;20094;-62
2023/03/17 05:09:54;;;;;;;4.90;3.38;;;21.00;29.80;;;;;;5073875;28;20048;-61
2023/03/17 05:12:21;;;;;;;3.90;3.05;;;21.00;29.80;;;;;;5075326;28;20128;-62
2023/03/17 05:14:48;;;;;;;5.82;3.50;;;21.00;29.70;;;;;;5075136;28;20044;-61
2023/03/17 05:17:16;;;;;;;4.93;3.13;;;21.00;29.70;;;;;;5075196;28;20041;-62
2023/03/17 05:19:43;;;;;;;3.67;3.25;;;21.10;29.80;;;;;;5075060;28;20040;-62
2023/03/17 05:22:10;;;;;;;3.50;3.03;;;21.00;29.70;;;;;;5074989;28;20054;-62
2023/03/17 05:24:37;;;;;;;3.47;2.70;;;21.00;29.70;;;;;;5074801;28;20132;-62
2023/03/17 05:27:04;;;;;;;4.93;3.13;;;21.10;29.70;;;;;;5074723;28;20049;-61
2023/03/17 05:29:31;;;;;;;4.85;2.90;;;21.00;29.70;;;;;;5074761;28;20084;-62
2023/03/17 05:31:58;;;;;;;6.15;3.25;;;21.00;29.60;;;;;;5081235;28;20049;-62
2023/03/17 05:34:26;;;;;;;4.60;2.92;;;21.10;29.70;;;;;;5086282;28;20072;-62
2023/03/17 05:36:53;;;;;;;4.15;3.30;;;21.10;29.60;;;;;;5084952;28;20072;-61
2023/03/17 05:39:20;;;;;;;5.13;3.67;;;21.10;29.50;;;;;;5082639;28;20052;-62
2023/03/17 05:41:49;;;;;;;4.00;3.28;;;21.00;29.30;;;;;;5087314;28;20040;-62
2023/03/17 05:44:16;;;;;;;5.53;3.20;;;21.00;29.40;;;;;;5084696;28;20143;-61
2023/03/17 05:46:43;;;;;;;4.90;3.47;;;21.00;29.40;;;;;;5082372;28;20481;-62
2023/03/17 05:49:10;;;;;;;5.32;3.70;;;21.00;29.40;;;;;;5091469;28;20535;-61
2023/03/17 05:51:37;;;;;;;5.25;3.63;;;21.00;29.40;;;;;;5093070;28;20400;-61
2023/03/17 05:54:04;;;;;;;5.15;3.90;;;21.00;29.40;;;;;;5094193;28;20105;-61
2023/03/17 05:56:32;;;;;;;4.95;3.90;;;21.00;29.40;;;;;;5094235;28;20510;-61
2023/03/17 05:59:00;;;;;;;5.40;3.60;;;21.00;29.30;;;;;;5094216;28;20488;-60
2023/03/17 06:01:28;;;;;;;5.25;4.10;;;21.10;29.30;;;;;;5084603;28;20049;-60
2023/03/17 06:03:55;;;;;;;4.53;3.63;;;21.10;29.20;;;;;;5094188;28;20480;-60
2023/03/17 06:06:23;;;;;;;4.22;3.47;;;21.10;29.20;;;;;;5094021;28;20377;-60
2023/03/17 06:08:51;;;;;;;4.85;3.78;;;21.20;29.20;;;;;;5092841;28;20051;-60
2023/03/17 06:11:20;;;;;;;6.40;3.95;;;21.20;29.20;;;;;;5094132;28;20084;-60
2023/03/17 06:13:47;;;;;;;5.15;3.80;;;21.30;29.20;;;;;;5091059;28;20090;-59
2023/03/17 06:16:14;;;;;;;5.07;3.90;;;21.30;29.10;;;;;;5078223;28;20488;-60
2023/03/17 06:18:42;;;;;;;5.85;4.03;;;21.30;29.00;;;;;;5087693;28;20052;-62
2023/03/17 06:21:09;;;;;;;5.28;3.97;;;21.40;29.00;;;;;;5081829;28;20123;-60
2023/03/17 06:23:36;;;;;;;6.63;4.57;;;21.40;29.00;;;;;;5077614;28;20874;-62
2023/03/17 06:26:04;;;;;;;5.55;4.32;;;21.40;28.90;;;;;;5079080;28;20090;-60
2023/03/17 06:28:32;;;;;;;5.15;4.10;;;21.50;29.00;;;;;;5084004;28;20132;-60
2023/03/17 06:30:59;;;;;;;7.30;4.53;;;21.50;29.00;;;;;;5082426;28;20054;-59
2023/03/17 06:33:27;;;;;;;8.25;4.13;;;21.60;29.00;;;;;;5084207;28;20496;-59
2023/03/17 06:35:55;;;;;;;8.45;5.50;;;21.60;28.80;;;;;;5082804;28;20122;-59
2023/03/17 06:38:22;;;;;;;7.72;5.38;;;21.60;28.90;;;;;;5080197;28;20076;-59
2023/03/17 06:40:49;;;;;;;10.90;6.18;;;21.70;29.00;;;;;;5088882;28;20123;-59
2023/03/17 06:43:18;;;;;;;10.10;6.05;;;21.80;29.10;;;;;;5080667;28;20068;-59
2023/03/17 06:45:45;;;;;;;11.38;5.68;;;21.80;29.10;;;;;;5083525;28;20123;-59
2023/03/17 06:48:14;;;;;;;9.43;5.55;;;21.80;29.20;;;;;;5060142;28;20139;-59
2023/03/17 06:50:42;;;;;;;10.70;5.68;;;21.90;29.20;;;;;;5072171;28;20137;-60
2023/03/17 06:53:10;;;;;;;10.85;5.65;;;21.90;29.10;;;;;;5079859;28;20051;-59
2023/03/17 06:59:29;;;;;;;;;;;22.00;29.00;;;;;;5073941;28;20051;-59
2023/03/17 07:01:57;;;;;;;9.73;5.90;;;22.00;29.00;;;;;;5080590;28;19928;-61
2023/03/17 07:04:27;;;;;;;7.38;5.32;;;22.10;29.30;;;;;;5079887;28;20427;-61
2023/03/17 07:06:54;;;;;;;9.40;5.57;;;22.10;29.70;;;;;;5078486;28;20043;-60
2023/03/17 07:09:22;;;;;;;8.27;5.97;;;22.20;29.70;;;;;;5079471;28;20693;-59
2023/03/17 07:11:50;;;;;;;7.85;5.53;;;22.20;29.80;;;;;;5081035;28;20066;-60
2023/03/17 07:14:17;;;;;;;12.05;6.15;;;22.30;30.00;;;;;;5076961;28;20052;-60
2023/03/17 07:16:45;;;;;;;10.23;6.10;;;22.40;30.10;;;;;;5082767;28;20052;-60
2023/03/17 07:19:12;;;;;;;9.80;6.15;;;22.40;30.00;;;;;;5077373;28;20137;-60
2023/03/17 07:21:40;;;;;;;11.52;6.80;;;22.40;30.10;;;;;;5082163;28;20139;-59
2023/03/17 07:24:08;;;;;;;13.05;6.57;;;22.50;30.10;;;;;;5078309;28;20097;-59
2023/03/17 07:26:36;;;;;;;9.38;6.10;;;22.50;30.20;;;;;;5081515;28;20072;-60
2023/03/17 07:29:03;;;;;;;10.93;5.75;;;22.60;30.10;;;;;;5082240;28;20048;-59
2023/03/17 07:31:30;;;;;;;8.60;5.93;;;22.60;30.20;;;;;;5080410;28;20064;-60
2023/03/17 07:33:58;;;;;;;9.57;6.90;;;22.70;30.30;;;;;;5081434;28;20080;-60
2023/03/17 07:36:26;;;;;;;12.63;6.40;;;22.70;30.20;;;;;;5076972;28;20416;-59
2023/03/17 07:38:54;;;;;;;10.50;6.35;;;22.80;30.30;;;;;;5077585;28;20048;-59
2023/03/17 07:41:21;;;;;;;15.07;6.50;;;22.80;30.00;;;;;;5081513;28;20089;-59
2023/03/17 07:43:49;;;;;;;11.98;6.35;;;22.90;30.20;;;;;;5079937;28;20079;-60
2023/03/17 07:46:17;;;;;;;10.98;6.72;;;22.90;30.10;;;;;;5079582;28;20137;-61
2023/03/17 07:48:45;;;;;;;7.75;5.80;;;23.00;30.20;;;;;;5081282;28;20056;-59
2023/03/17 07:51:14;;;;;;;9.93;5.95;;;23.00;29.90;;;;;;5075944;28;20067;-59
2023/03/17 07:53:42;;;;;;;7.43;5.18;;;23.10;29.90;;;;;;5078445;28;20059;-60
2023/03/17 07:56:09;;;;;;;9.65;5.57;;;23.10;30.00;;;;;;5077410;28;20070;-60
2023/03/17 07:58:36;;;;;;;8.30;5.38;;;23.20;30.00;;;;;;5078814;28;20131;-59
2023/03/17 08:01:04;;;;;;;8.63;5.30;;;23.20;29.80;;;;;;5081559;28;20056;-59
2023/03/17 08:03:31;;;;;;;8.55;5.72;;;23.20;29.90;;;;;;5080212;28;20538;-59
2023/03/17 08:05:59;;;;;;;7.43;4.78;;;23.30;29.60;;;;;;5079651;28;20415;-58
2023/03/17 08:08:27;;;;;;;8.75;5.22;;;23.30;29.60;;;;;;5078172;28;20040;-58
2023/03/17 08:11:02;;;;;;;5.97;4.70;;;23.40;29.70;;;;;;5082539;28;20106;-58
2023/03/17 08:13:31;;;;;;;10.70;4.68;;;23.40;29.60;;;;;;5079583;28;20051;-59
2023/03/17 08:15:58;;;;;;;9.63;4.88;;;23.50;29.50;;;;;;5080195;28;20511;-58
2023/03/17 08:18:26;;;;;;;7.65;4.78;;;23.50;29.50;;;;;;5078412;28;20052;-58
2023/03/17 08:20:53;;;;;;;6.65;4.65;;;23.60;29.50;;;;;;5082776;28;20044;-59
2023/03/17 08:23:21;;;;;;;5.20;4.07;;;23.60;29.30;;;;;;5078090;28;20059;-59
2023/03/17 08:25:48;;;;;;;7.55;4.63;;;23.60;29.20;;;;;;5085000;28;20048;-59
2023/03/17 08:28:15;;;;;;;6.45;4.20;;;23.70;29.20;;;;;;5080613;28;20052;-59
2023/03/17 08:30:43;;;;;;;5.85;4.50;;;23.80;29.30;;;;;;5080319;28;20056;-59
2023/03/17 08:33:11;;;;;;;4.57;3.67;;;23.80;29.10;;;;;;5078902;28;20154;-59
2023/03/17 08:35:40;;;;;;;7.10;3.63;;;23.80;29.10;;;;;;5083301;28;20051;-59
2023/03/17 08:38:08;;;;;;;4.63;3.90;;;23.80;29.00;;;;;;5082022;28;20044;-59
2023/03/17 08:40:37;;;;;;;4.10;3.47;;;23.90;29.00;;;;;;5086964;28;20479;-61
2023/03/17 08:43:06;;;;;;;4.78;3.05;;;23.90;29.00;;;;;;5082544;28;20130;-60
2023/03/17 08:45:33;;;;;;;5.60;3.95;;;23.90;28.90;;;;;;5085392;28;20044;-60
2023/03/17 08:48:02;;;;;;;5.15;3.25;;;23.90;28.90;;;;;;5086712;28;20471;-60
2023/03/17 08:50:29;;;;;;;6.60;3.33;;;24.00;28.80;;;;;;5082440;28;20511;-60
2023/03/17 08:52:58;;;;;;;4.35;2.90;;;24.00;28.60;;;;;;5084242;28;20071;-61
2023/03/17 08:55:25;;;;;;;4.28;3.63;;;24.10;28.50;;;;;;5082949;28;20079;-61
2023/03/17 08:57:52;;;;;;;3.75;2.80;;;24.10;28.30;;;;;;5086986;28;20616;-62
2023/03/17 09:00:20;;;;;;;4.30;3.38;;;24.10;28.20;;;;;;5087896;28;20132;-61
2023/03/17 09:02:48;;;;;;;5.38;2.88;;;24.10;28.10;;;;;;5090785;28;21891;-61
2023/03/17 09:05:17;;;;;;;3.85;2.70;;;24.10;27.90;;;;;;5084096;28;20045;-60
2023/03/17 09:07:44;;;;;;;8.10;3.55;;;24.10;27.90;;;;;;5083114;28;20047;-60
2023/03/17 09:10:13;;;;;;;4.03;2.80;;;24.10;27.70;;;;;;5082391;28;20110;-61
2023/03/17 09:12:41;;;;;;;6.88;2.92;;;24.10;27.80;;;;;;5079089;28;20052;-60
2023/03/17 09:15:11;;;;;;;3.47;2.72;;;24.10;27.70;;;;;;5080349;28;20055;-60
2023/03/17 09:17:38;;;;;;;2.78;2.42;;;24.10;27.60;;;;;;5088452;28;20156;-60
2023/03/17 09:20:05;;;;;;;4.68;2.75;;;24.10;27.50;;;;;;5090296;28;20075;-62
2023/03/17 09:22:33;;;;;;;2.72;2.22;;;24.10;27.50;;;;;;5087232;28;20101;-60
2023/03/17 09:25:00;;;;;;;6.65;3.13;;;24.10;27.50;;;;;;5087952;28;20446;-60
2023/03/17 09:27:27;;;;;;;5.15;2.95;;;24.10;27.30;;;;;;5081639;28;20139;-60
2023/03/17 09:29:55;;;;;;;3.70;2.10;;;24.10;27.20;;;;;;5082205;28;20047;-60
2023/03/17 09:32:22;;;;;;;3.03;2.30;;;24.10;27.20;;;;;;5083416;28;20117;-60
2023/03/17 09:34:49;;;;;;;2.80;2.03;;;24.10;27.10;;;;;;5080829;28;20064;-61
2023/03/17 09:37:17;;;;;;;3.03;2.47;;;24.20;27.20;;;;;;5081734;28;20102;-60
2023/03/17 09:39:45;;;;;;;3.40;2.58;;;24.20;27.20;;;;;;5082359;28;20123;-59
2023/03/17 09:42:41;;;;;;;2.92;2.22;;;24.20;27.10;;;;;;5081396;28;20052;-59
2023/03/17 09:45:24;;;;;;;3.00;2.60;;;24.20;27.10;;;;;;5084360;28;20123;-59
2023/03/17 09:48:13;;;;;;;7.20;2.25;;;24.30;27.20;;;;;;5085389;28;20136;-59
2023/03/17 09:50:57;;;;;;;3.40;2.15;;;24.30;27.10;;;;;;5082883;28;20087;-59
2023/03/17 09:53:52;;;;;;;2.38;2.13;;;24.30;27.10;;;;;;5085971;28;20085;-59
2023/03/17 09:56:21;;;;;;;3.97;2.13;;;24.30;27.00;;;;;;5080698;28;20074;-60
2023/03/17 09:58:53;;;;;;;4.15;2.15;;;24.30;26.90;;;;;;5082870;28;20404;-60
2023/03/17 10:01:21;;;;;;;2.55;2.00;;;24.30;26.90;;;;;;5084385;28;20134;-58
2023/03/17 10:03:50;;;;;;;3.25;1.90;;;24.30;27.00;;;;;;5083079;28;20518;-58
2023/03/17 10:06:32;;;;;;;4.25;1.95;;;24.40;27.00;;;;;;5083616;28;20044;-58
2023/03/17 10:09:09;;;;;;;2.28;2.08;;;24.40;27.00;;;;;;5079954;28;20518;-59
2023/03/17 10:11:44;;;;;;;4.03;2.28;;;24.40;27.00;;;;;;5088070;28;20048;-57
2023/03/17 10:14:41;;;;;;;2.67;1.75;;;24.40;26.90;;;;;;5090794;28;20411;-58
2023/03/17 10:17:17;;;;;;;2.13;1.83;;;24.40;26.80;;;;;;5086858;28;20048;-58
2023/03/17 10:20:03;;;;;;;2.85;2.50;;;24.50;27.20;;;;;;5081371;28;20055;-58
2023/03/17 10:22:47;;;;;;;2.58;2.05;;;24.50;26.70;;;;;;5079592;28;20468;-58
2023/03/17 10:25:19;;;;;;;3.75;1.90;;;24.50;26.80;;;;;;5084155;28;20093;-58
2023/03/17 10:27:55;;;;;;;2.88;1.95;;;24.50;26.70;;;;;;5084228;28;20070;-58
2023/03/17 10:30:22;;;;;;;3.38;1.98;;;24.50;26.70;;;;;;5079900;28;20044;-58
2023/03/17 10:32:53;;;;;;;2.63;1.58;;;24.50;26.60;;;;;;5080763;28;20134;-58
2023/03/17 10:35:23;;;;;;;3.83;1.75;;;24.60;26.50;;;;;;5083562;28;20040;-58
2023/03/17 10:37:50;;;;;;;2.20;1.50;;;24.50;26.40;;;;;;5082225;28;20116;-58
2023/03/17 10:40:37;;;;;;;2.95;1.55;;;24.50;26.30;;;;;;5084563;28;20048;-57
2023/03/17 10:43:07;;;;;;;3.35;2.20;;;24.50;26.40;;;;;;5085793;28;20044;-57
2023/03/17 10:45:39;;;;;;;2.65;1.63;;;24.60;26.60;;;;;;5085014;28;20043;-58
2023/03/17 10:48:17;;;;;;;3.05;1.65;;;24.60;26.60;;;;;;5080977;28;20101;-59
2023/03/17 10:50:45;;;;;;;2.67;1.50;;;24.60;27.00;;;;;;5087281;28;20052;-59
2023/03/17 10:53:26;;;;;;;1.65;1.40;;;24.60;26.60;;;;;;5084576;28;20181;-59
2023/03/17 10:56:05;;;;;;;1.90;1.30;;;24.50;26.40;;;;;;5078238;28;20074;-60
2023/03/17 10:58:37;;;;;;;3.85;1.50;;;24.60;26.50;;;;;;5083051;28;20048;-60
2023/03/17 11:01:19;;;;;;;2.78;1.60;;;24.60;26.40;;;;;;5087570;28;20111;-61
2023/03/17 11:03:48;;;;;;;3.95;2.13;;;24.60;26.40;;;;;;5088430;28;20376;-58
2023/03/17 11:06:19;;;;;;;1.75;1.45;;;24.70;26.30;;;;;;5089233;28;20097;-58
2023/03/17 11:08:52;;;;;;;;;;;24.60;26.30;;;;;;5085169;28;20046;-60
2023/03/17 11:11:28;;;;;;;2.72;1.67;;;24.70;26.30;;;;;;5081052;28;19924;-60
2023/03/17 11:14:12;;;;;;;1.60;1.50;;;24.60;26.30;;;;;;5085051;28;20044;-60
2023/03/17 11:16:52;;;;;;;1.60;1.50;;;24.70;26.30;;;;;;5083455;28;20083;-59
2023/03/17 11:19:30;;;;;;;1.80;1.50;;;24.70;26.20;;;;;;5084536;28;20061;-60
2023/03/17 11:22:14;;;;;;;4.47;1.65;;;24.70;26.20;;;;;;5085852;28;20055;-60
2023/03/17 11:25:08;;;;;;;4.45;1.73;;;24.70;26.20;;;;;;5066076;28;20453;-59
2023/03/17 11:27:47;;;;;;;2.00;1.75;;;24.70;26.20;;;;;;5083162;28;20068;-59
2023/03/17 11:30:37;;;;;;;2.80;1.50;;;24.70;26.10;;;;;;5080617;28;20052;-59
2023/03/17 11:33:29;;;;;;;1.65;1.45;;;24.80;26.30;;;;;;5081293;28;20047;-59
2023/03/17 11:36:12;;;;;;;3.08;1.90;;;24.80;26.30;;;;;;5080632;28;20048;-59
2023/03/17 11:38:58;;;;;;;4.68;1.27;;;24.80;26.30;;;;;;5078682;28;20102;-59
2023/03/17 11:41:58;;;;;;;2.30;1.60;;;24.80;26.30;;;;;;5082433;28;20048;-59
2023/03/17 11:44:46;;;;;;;1.52;1.42;;;24.80;26.30;;;;;;5077588;28;20454;-59
2023/03/17 11:47:40;;;;;;;2.35;1.65;;;24.80;26.20;;;;;;5082678;28;20074;-59
2023/03/17 11:50:38;;;;;;;2.70;1.30;;;24.80;26.30;;;;;;5077347;28;20127;-53
2023/03/17 11:53:30;;;;;;;3.33;1.67;;;24.80;26.40;;;;;;5080997;28;20054;-58
2023/03/17 11:56:10;;;;;;;2.97;1.80;;;24.80;26.10;;;;;;5087559;28;20424;-58
2023/03/17 11:58:42;;;;;;;2.67;1.60;;;24.80;26.00;;;;;;5086076;28;20062;-58
2023/03/17 12:01:20;;;;;;;5.07;1.52;;;24.80;26.10;;;;;;5089020;28;20131;-58
2023/03/17 12:04:29;;;;;;;2.92;1.63;;;24.90;26.00;;;;;;5081731;28;20040;-59
2023/03/17 12:07:16;;;;;;;2.90;1.23;;;24.90;25.90;;;;;;5083046;28;20044;-60
2023/03/17 12:09:49;;;;;;;1.67;1.58;;;24.90;25.90;;;;;;5082039;28;20052;-60
2023/03/17 12:12:23;;;;;;;1.42;1.25;;;24.90;26.00;;;;;;5087590;28;21351;-61
2023/03/17 12:14:52;;;;;;;2.97;1.67;;;25.00;26.10;;;;;;5084582;28;20110;-60
2023/03/17 12:17:40;;;;;;;2.30;1.10;;;25.00;26.10;;;;;;5084694;28;21064;-61
2023/03/17 12:20:17;;;;;;;3.33;1.38;;;25.00;26.30;;;;;;5081869;28;20076;-60
2023/03/17 12:23:04;;;;;;;1.13;0.98;;;25.10;26.30;;;;;;5082238;28;20074;-60
2023/03/17 12:25:39;;;;;;;1.85;1.35;;;25.10;26.30;;;;;;5083957;28;20040;-59
2023/03/17 12:28:18;;;;;;;1.42;1.17;;;25.10;26.40;;;;;;5090068;28;20047;-59
2023/03/17 12:30:53;;;;;;;2.47;1.77;;;25.10;26.40;;;;;;5081598;28;20501;-59
2023/03/17 12:33:44;;;;;;;4.45;1.40;;;25.20;26.40;;;;;;5081297;28;20052;-59
2023/03/17 12:36:15;;;;;;;1.83;0.90;;;25.20;26.40;;;;;;5086079;28;20040;-60
2023/03/17 12:39:00;;;;;;;1.67;1.55;;;25.20;26.20;;;;;;5088609;28;20048;-60
2023/03/17 12:42:05;;;;;;;1.55;1.30;;;25.20;26.10;;;;;;5087347;28;20044;-61
2023/03/17 12:44:52;;;;;;;1.58;1.20;;;25.20;26.10;;;;;;5088200;28;20042;-59
2023/03/17 12:47:40;;;;;;;2.08;1.25;;;25.30;26.30;;;;;;5085483;28;20143;-62
2023/03/17 12:50:39;;;;;;;1.20;1.10;;;25.30;26.30;;;;;;5091152;28;20123;-61
2023/03/17 12:53:31;;;;;;;3.90;1.33;;;25.30;26.20;;;;;;5087157;28;20529;-61
2023/03/17 12:56:15;;;;;;;3.80;1.02;;;25.30;25.70;;;;;;5080506;28;20040;-59
2023/03/17 12:58:46;;;;;;;1.42;1.33;;;25.30;26.10;;;;;;5086010;28;20123;-59
2023/03/17 13:01:30;;;;;;;2.80;1.30;;;25.40;26.10;;;;;;5082166;28;20047;-60
2023/03/17 13:04:13;;;;;;;4.28;1.58;;;25.40;26.20;;;;;;5082270;28;20127;-58
2023/03/17 13:07:01;;;;;;;1.98;1.45;;;25.40;26.10;;;;;;5084939;28;20055;-58
2023/03/17 13:09:47;;;;;;;5.65;1.85;;;25.40;25.80;;;;;;5090180;28;20054;-58
2023/03/17 13:12:54;;;;;;;3.47;1.60;;;25.40;25.60;;;;;;5093245;28;20044;-58